Time;durP1;ratioP1;P1;durP2;ratioP2;P2;SDS_P1;SDS_P2;PMS_P1;PMS_P2;Temp;Humidity;BMP_temperature;BMP_pressure;BME280_temperature;BME280_humidity;BME280_pressure;Samples;Min_cycle;Max_cycle;Signal;HPM_P1;HPM_P2
2021/09/24 00:02:09;;;;;;;8.60;3.45;;;15.80;99.90;;;;;;5010132;28;20076;-84
2021/09/24 00:04:36;;;;;;;11.25;4.32;;;15.80;99.90;;;;;;5011233;28;20485;-83
2021/09/24 00:07:02;;;;;;;9.52;4.65;;;15.70;99.90;;;;;;5006524;28;20092;-83
2021/09/24 00:09:28;;;;;;;11.63;4.93;;;15.70;99.90;;;;;;5011334;28;20084;-84
2021/09/24 00:11:53;;;;;;;14.43;5.03;;;15.60;99.90;;;;;;5011939;28;20505;-84
2021/09/24 00:14:19;;;;;;;12.13;4.80;;;15.50;99.90;;;;;;5010420;28;20112;-84
2021/09/24 00:16:45;;;;;;;16.67;4.60;;;15.50;99.90;;;;;;5013199;28;20105;-84
2021/09/24 00:19:10;;;;;;;10.48;3.97;;;15.40;99.90;;;;;;5010156;28;20393;-83
2021/09/24 00:21:36;;;;;;;14.77;5.20;;;15.30;99.90;;;;;;5010968;28;20026;-84
2021/09/24 00:24:02;;;;;;;13.20;5.03;;;15.30;99.90;;;;;;5011741;28;20375;-84
2021/09/24 00:26:28;;;;;;;15.95;5.57;;;15.20;99.90;;;;;;5011029;28;20036;-83
2021/09/24 00:28:54;;;;;;;9.88;4.40;;;15.20;99.90;;;;;;5010898;28;20084;-84
2021/09/24 00:31:19;;;;;;;11.85;4.63;;;15.20;99.90;;;;;;5009191;28;20026;-84
2021/09/24 00:33:45;;;;;;;11.25;4.43;;;15.10;99.90;;;;;;5008484;28;20050;-84
2021/09/24 00:36:10;;;;;;;12.93;4.03;;;15.10;99.90;;;;;;5010809;28;20033;-84
2021/09/24 00:38:38;;;;;;;12.23;4.88;;;15.20;99.90;;;;;;5012211;28;20080;-84
2021/09/24 00:41:04;;;;;;;15.02;5.55;;;15.10;99.90;;;;;;5010147;28;20022;-84
2021/09/24 00:43:30;;;;;;;14.02;4.95;;;15.10;99.90;;;;;;5010308;28;20440;-83
2021/09/24 00:45:55;;;;;;;12.23;4.65;;;15.20;99.90;;;;;;5007497;28;20034;-83
2021/09/24 00:48:21;;;;;;;14.60;4.60;;;15.20;99.90;;;;;;5013571;28;20402;-83
2021/09/24 00:50:47;;;;;;;13.20;4.70;;;15.20;99.90;;;;;;5003803;28;20026;-82
2021/09/24 00:53:13;;;;;;;13.57;4.85;;;15.20;99.90;;;;;;5007853;28;20516;-84
2021/09/24 00:55:38;;;;;;;11.60;4.75;;;15.20;99.90;;;;;;5011420;28;20030;-84
2021/09/24 00:58:04;;;;;;;10.60;4.28;;;15.10;99.90;;;;;;5009791;28;20026;-84
2021/09/24 01:00:30;;;;;;;11.52;4.22;;;15.10;99.90;;;;;;5019383;28;20049;-84
2021/09/24 01:02:55;;;;;;;8.77;4.50;;;15.10;99.90;;;;;;5004631;28;20038;-83
2021/09/24 01:05:21;;;;;;;13.05;4.03;;;15.10;99.90;;;;;;5006882;28;20514;-83
2021/09/24 01:07:47;;;;;;;10.07;3.47;;;15.10;99.90;;;;;;5011509;28;20032;-84
2021/09/24 01:10:15;;;;;;;11.77;3.90;;;15.10;99.90;;;;;;5009806;28;20026;-84
2021/09/24 01:12:40;;;;;;;12.15;3.70;;;15.20;99.90;;;;;;5009714;28;20033;-84
2021/09/24 01:15:09;;;;;;;15.02;3.85;;;15.20;99.90;;;;;;5010366;28;20128;-84
2021/09/24 01:17:35;;;;;;;10.07;3.72;;;15.20;99.90;;;;;;5009506;28;20105;-84
2021/09/24 01:20:02;;;;;;;12.38;4.25;;;15.20;99.90;;;;;;5010746;28;20049;-84
2021/09/24 01:22:27;;;;;;;10.18;3.80;;;15.20;99.90;;;;;;5008852;28;20092;-84
2021/09/24 01:24:53;;;;;;;10.63;3.33;;;15.20;99.90;;;;;;5009145;28;20023;-84
2021/09/24 01:27:18;;;;;;;13.40;3.72;;;15.20;99.90;;;;;;5009904;28;20482;-83
2021/09/24 01:29:49;;;;;;;13.70;3.95;;;15.30;99.90;;;;;;5011363;28;20413;-84
2021/09/24 01:32:14;;;;;;;14.57;3.88;;;15.30;99.90;;;;;;5009793;28;20510;-83
2021/09/24 01:34:40;;;;;;;8.85;3.53;;;15.30;99.90;;;;;;5004329;28;20132;-83
2021/09/24 01:37:05;;;;;;;10.07;4.03;;;15.30;99.90;;;;;;5000155;28;20018;-84
2021/09/24 01:39:31;;;;;;;11.48;3.53;;;15.30;99.90;;;;;;5009735;28;20091;-84
2021/09/24 01:41:56;;;;;;;11.60;3.80;;;15.30;99.90;;;;;;5008922;28;20437;-84
2021/09/24 01:44:22;;;;;;;11.00;3.33;;;15.40;99.90;;;;;;5009375;28;20041;-84
2021/09/24 01:46:47;;;;;;;10.65;3.75;;;15.30;99.90;;;;;;5011518;28;20034;-84
2021/09/24 01:49:13;;;;;;;12.40;3.75;;;15.40;99.90;;;;;;5009607;28;20116;-84
2021/09/24 01:51:43;;;;;;;10.05;3.67;;;15.40;99.90;;;;;;5007003;28;20028;-83
2021/09/24 01:54:09;;;;;;;7.13;3.78;;;15.40;99.90;;;;;;5006215;28;20041;-83
2021/09/24 01:56:35;;;;;;;11.32;3.63;;;15.40;99.90;;;;;;5008466;28;20021;-83
2021/09/24 01:59:00;;;;;;;8.23;3.08;;;15.40;99.90;;;;;;5010050;28;20053;-84
2021/09/24 02:01:26;;;;;;;7.93;3.38;;;15.40;99.90;;;;;;5009087;28;20030;-84
2021/09/24 02:03:51;;;;;;;12.10;3.03;;;15.50;99.90;;;;;;5011621;28;20041;-83
2021/09/24 02:06:17;;;;;;;10.02;2.88;;;15.40;99.90;;;;;;5013132;28;20014;-84
2021/09/24 02:08:43;;;;;;;10.45;2.97;;;15.40;99.90;;;;;;5013472;28;20076;-83
2021/09/24 02:11:10;;;;;;;8.57;2.88;;;15.40;99.90;;;;;;5011859;28;20120;-84
2021/09/24 02:13:37;;;;;;;9.45;2.75;;;15.40;99.90;;;;;;5013660;28;20064;-83
2021/09/24 02:16:03;;;;;;;10.77;3.10;;;15.40;99.90;;;;;;5011903;28;20030;-83
2021/09/24 02:18:28;;;;;;;9.55;3.30;;;15.40;99.90;;;;;;5012088;28;20116;-84
2021/09/24 02:20:54;;;;;;;9.73;2.85;;;15.40;99.90;;;;;;5013448;28;20367;-84
2021/09/24 02:23:19;;;;;;;8.15;2.33;;;15.40;99.90;;;;;;5025301;28;20085;-84
2021/09/24 02:25:45;;;;;;;4.07;2.38;;;15.50;99.90;;;;;;5012025;28;20025;-84
2021/09/24 02:28:10;;;;;;;6.30;2.08;;;15.40;99.90;;;;;;5011362;28;20472;-84
2021/09/24 02:30:36;;;;;;;11.30;3.15;;;15.40;99.90;;;;;;5010324;28;20026;-83
2021/09/24 02:33:02;;;;;;;7.80;4.35;;;15.40;99.90;;;;;;5009936;28;20034;-83
2021/09/24 02:35:27;;;;;;;11.75;5.35;;;15.40;99.90;;;;;;5011923;28;20080;-83
2021/09/24 02:37:53;;;;;;;9.15;6.00;;;15.40;99.90;;;;;;5011625;28;20026;-83
2021/09/24 02:40:19;;;;;;;14.30;7.28;;;15.40;99.90;;;;;;5011591;28;20113;-83
2021/09/24 02:42:45;;;;;;;16.50;10.02;;;15.40;99.90;;;;;;5011856;28;20029;-83
2021/09/24 02:45:10;;;;;;;17.80;11.00;;;15.40;99.90;;;;;;5011759;28;20080;-83
2021/09/24 02:47:36;;;;;;;22.25;13.32;;;15.40;99.90;;;;;;5012116;28;20552;-84
2021/09/24 02:50:02;;;;;;;18.92;12.73;;;15.30;99.90;;;;;;5012122;28;20489;-83
2021/09/24 02:52:28;;;;;;;22.42;13.00;;;15.30;99.90;;;;;;5011359;28;20161;-84
2021/09/24 02:54:53;;;;;;;20.13;13.30;;;15.30;99.90;;;;;;5011209;28;20026;-84
2021/09/24 02:57:19;;;;;;;23.30;15.55;;;15.20;99.90;;;;;;5012582;28;20045;-84
2021/09/24 02:59:44;;;;;;;26.27;15.93;;;15.10;99.90;;;;;;5009704;28;20030;-84
2021/09/24 03:02:10;;;;;;;27.52;16.58;;;15.20;99.90;;;;;;5012276;28;20038;-83
2021/09/24 03:04:35;;;;;;;31.15;17.95;;;15.10;99.90;;;;;;5012753;28;20037;-83
2021/09/24 03:07:01;;;;;;;30.50;19.25;;;15.10;99.90;;;;;;5011635;28;20145;-84
2021/09/24 03:09:26;;;;;;;36.22;22.45;;;15.10;99.90;;;;;;5029279;28;20013;-84
2021/09/24 03:11:52;;;;;;;33.05;19.77;;;15.10;99.90;;;;;;5010927;28;20568;-84
2021/09/24 03:14:17;;;;;;;41.00;23.63;;;15.10;99.90;;;;;;5012029;28;20036;-84
2021/09/24 03:16:43;;;;;;;42.08;24.15;;;15.00;99.90;;;;;;5012201;28;20026;-83
2021/09/24 03:19:09;;;;;;;47.90;27.00;;;15.00;99.90;;;;;;5012139;28;20058;-83
2021/09/24 03:21:36;;;;;;;52.47;28.25;;;15.00;99.90;;;;;;5006248;28;20072;-84
2021/09/24 03:24:01;;;;;;;51.85;29.80;;;15.00;99.90;;;;;;5010766;28;20038;-84
2021/09/24 03:26:27;;;;;;;54.95;28.95;;;15.00;99.90;;;;;;5011780;28;20030;-84
2021/09/24 03:28:54;;;;;;;63.05;32.58;;;15.10;99.90;;;;;;5011130;28;20413;-83
2021/09/24 03:31:21;;;;;;;59.22;31.15;;;15.00;99.90;;;;;;5010150;28;20022;-83
2021/09/24 03:33:47;;;;;;;67.60;33.92;;;15.10;99.90;;;;;;5011490;28;20107;-84
2021/09/24 03:36:13;;;;;;;69.70;33.70;;;15.00;99.90;;;;;;5018206;28;20031;-84
2021/09/24 03:38:38;;;;;;;69.57;34.22;;;15.00;99.90;;;;;;5011247;28;20423;-84
2021/09/24 03:41:04;;;;;;;77.03;34.92;;;15.00;99.90;;;;;;5010533;28;20033;-84
2021/09/24 03:43:29;;;;;;;76.68;35.60;;;15.00;99.90;;;;;;5010801;28;20030;-83
2021/09/24 03:45:55;;;;;;;72.32;35.45;;;15.10;99.90;;;;;;5007233;28;20029;-84
2021/09/24 03:48:21;;;;;;;78.93;36.80;;;15.10;99.90;;;;;;5012357;28;20068;-84
2021/09/24 03:50:46;;;;;;;72.47;36.70;;;15.10;99.90;;;;;;5008478;28;20061;-84
2021/09/24 03:53:12;;;;;;;80.57;37.90;;;15.10;99.90;;;;;;4999195;28;20805;-84
2021/09/24 03:55:37;;;;;;;77.25;36.35;;;15.20;99.90;;;;;;5006165;28;20025;-84
2021/09/24 03:58:03;;;;;;;78.60;38.30;;;15.20;99.90;;;;;;5011376;28;20036;-84
2021/09/24 04:00:29;;;;;;;78.40;36.38;;;15.20;99.90;;;;;;5012609;28;20044;-84
2021/09/24 04:02:54;;;;;;;81.20;37.15;;;15.30;99.90;;;;;;5011260;28;20065;-84
2021/09/24 04:05:20;;;;;;;78.72;37.55;;;15.30;99.90;;;;;;5011096;28;20022;-84
2021/09/24 04:07:45;;;;;;;82.07;36.15;;;15.30;99.90;;;;;;5012035;28;20030;-84
2021/09/24 04:10:11;;;;;;;83.57;37.40;;;15.30;99.90;;;;;;5004791;28;20136;-84
2021/09/24 04:12:37;;;;;;;89.40;39.38;;;15.40;99.90;;;;;;5023646;28;20026;-84
2021/09/24 04:15:04;;;;;;;91.75;37.58;;;15.40;99.90;;;;;;5005961;28;20026;-84
2021/09/24 04:17:29;;;;;;;83.65;37.17;;;15.40;99.90;;;;;;5010659;28;20103;-84
2021/09/24 04:19:55;;;;;;;88.53;38.70;;;15.40;99.90;;;;;;5014041;28;20497;-84
2021/09/24 04:22:22;;;;;;;90.93;38.15;;;15.50;99.90;;;;;;5010021;28;20050;-86
2021/09/24 04:24:48;;;;;;;95.03;40.80;;;15.50;99.90;;;;;;5015486;28;20065;-85
2021/09/24 04:27:16;;;;;;;91.22;39.28;;;15.50;99.90;;;;;;5014510;28;20052;-86
2021/09/24 04:29:41;;;;;;;90.03;37.00;;;15.60;99.90;;;;;;5012021;28;20026;-85
2021/09/24 04:32:07;;;;;;;110.60;39.80;;;15.60;99.90;;;;;;5009512;28;20033;-84
2021/09/24 04:34:34;;;;;;;95.93;38.78;;;15.60;99.90;;;;;;5009714;28;20042;-85
2021/09/24 04:37:00;;;;;;;103.28;41.67;;;15.70;99.90;;;;;;5012554;28;20033;-83
2021/09/24 04:39:25;;;;;;;105.78;40.30;;;15.70;99.90;;;;;;5010270;28;20087;-84
2021/09/24 04:41:51;;;;;;;95.05;39.40;;;15.70;99.90;;;;;;5015001;28;20036;-83
2021/09/24 04:44:16;;;;;;;110.30;42.50;;;15.70;99.90;;;;;;5010266;28;20069;-83
2021/09/24 04:46:45;;;;;;;105.47;41.22;;;15.70;99.90;;;;;;5010779;28;20406;-83
2021/09/24 04:49:11;;;;;;;109.45;42.33;;;15.80;99.90;;;;;;5008462;28;20030;-82
2021/09/24 04:51:36;;;;;;;105.72;41.00;;;15.80;99.90;;;;;;5002898;28;20045;-83
2021/09/24 04:54:02;;;;;;;111.55;43.33;;;15.80;99.90;;;;;;5009555;28;20041;-83
2021/09/24 04:56:28;;;;;;;100.65;41.58;;;15.80;99.90;;;;;;5010431;28;20398;-83
2021/09/24 04:58:53;;;;;;;99.20;42.22;;;15.80;99.90;;;;;;5010198;28;20072;-82
2021/09/24 05:01:19;;;;;;;103.43;42.72;;;15.80;99.90;;;;;;5011251;28;20097;-83
2021/09/24 05:03:44;;;;;;;113.03;44.25;;;15.80;99.90;;;;;;5012140;28;20045;-83
2021/09/24 05:06:10;;;;;;;110.82;44.83;;;15.80;99.90;;;;;;5006576;28;20092;-83
2021/09/24 05:08:35;;;;;;;96.63;41.78;;;15.80;99.90;;;;;;5008864;28;20797;-84
2021/09/24 05:11:01;;;;;;;107.75;45.20;;;15.80;99.90;;;;;;5003817;28;20022;-83
2021/09/24 05:13:26;;;;;;;104.72;44.85;;;15.80;99.90;;;;;;5008820;28;20032;-83
2021/09/24 05:15:52;;;;;;;109.38;43.92;;;15.80;99.90;;;;;;5007780;28;20596;-83
2021/09/24 05:18:17;;;;;;;100.20;43.42;;;15.90;99.90;;;;;;5012024;28;20038;-83
2021/09/24 05:20:43;;;;;;;104.85;43.10;;;15.80;99.90;;;;;;5005873;28;20030;-84
2021/09/24 05:23:08;;;;;;;104.93;45.25;;;15.90;99.90;;;;;;5008205;28;20441;-84
2021/09/24 05:25:34;;;;;;;103.78;43.92;;;15.90;99.90;;;;;;5007956;28;20471;-84
2021/09/24 05:27:59;;;;;;;116.53;46.03;;;15.90;99.90;;;;;;5009623;28;20026;-83
2021/09/24 05:30:25;;;;;;;101.15;44.45;;;15.90;99.90;;;;;;5007787;28;20929;-83
2021/09/24 05:32:53;;;;;;;107.75;44.53;;;15.90;99.90;;;;;;5011902;28;20041;-85
2021/09/24 05:35:19;;;;;;;119.43;45.28;;;15.90;99.90;;;;;;5012470;28;20026;-85
2021/09/24 05:37:45;;;;;;;101.60;43.55;;;15.90;99.90;;;;;;5004471;28;20069;-84
2021/09/24 05:40:11;;;;;;;101.13;42.70;;;15.90;99.90;;;;;;5012447;28;20053;-83
2021/09/24 05:42:37;;;;;;;90.80;40.13;;;15.90;99.90;;;;;;5014211;28;20029;-84
2021/09/24 05:45:04;;;;;;;82.68;38.90;;;15.90;99.90;;;;;;5006773;28;20040;-83
2021/09/24 05:47:30;;;;;;;87.03;37.90;;;15.90;99.90;;;;;;5016314;28;20072;-84
2021/09/24 05:49:55;;;;;;;90.30;38.10;;;15.90;99.90;;;;;;5011214;28;20022;-85
2021/09/24 05:52:21;;;;;;;83.80;36.97;;;15.90;99.90;;;;;;4996948;28;20026;-84
2021/09/24 05:54:47;;;;;;;88.13;38.45;;;15.90;99.90;;;;;;5026147;28;20068;-85
2021/09/24 05:57:12;;;;;;;85.82;39.97;;;15.90;99.90;;;;;;5016227;28;20030;-84
2021/09/24 05:59:38;;;;;;;86.25;37.75;;;15.90;99.90;;;;;;5010520;28;20061;-85
2021/09/24 06:02:04;;;;;;;103.50;39.88;;;15.90;99.90;;;;;;5003484;28;20029;-85
2021/09/24 06:04:30;;;;;;;87.50;38.95;;;15.90;99.90;;;;;;5013392;28;20501;-85
2021/09/24 06:06:56;;;;;;;87.28;39.13;;;15.90;99.90;;;;;;5015886;28;20072;-85
2021/09/24 06:09:21;;;;;;;88.05;39.42;;;16.00;99.90;;;;;;5014637;28;20024;-84
2021/09/24 06:11:47;;;;;;;90.03;40.90;;;16.00;99.90;;;;;;5014136;28;20029;-84
2021/09/24 06:14:12;;;;;;;95.05;39.47;;;15.90;99.90;;;;;;5015498;28;20034;-84
2021/09/24 06:16:38;;;;;;;87.07;39.17;;;16.00;99.90;;;;;;5015918;28;20041;-86
2021/09/24 06:19:04;;;;;;;97.60;41.80;;;16.00;99.90;;;;;;5015311;28;20025;-85
2021/09/24 06:21:30;;;;;;;89.50;38.63;;;16.00;99.90;;;;;;5013918;28;20033;-84
2021/09/24 06:23:56;;;;;;;92.20;41.30;;;16.00;99.90;;;;;;5014155;28;20421;-85
2021/09/24 06:26:22;;;;;;;85.45;38.92;;;16.00;99.90;;;;;;5014784;28;20022;-85
2021/09/24 06:28:48;;;;;;;89.38;40.25;;;16.00;99.90;;;;;;5014395;28;20124;-84
2021/09/24 06:31:13;;;;;;;86.72;38.70;;;16.00;99.90;;;;;;5018718;28;20053;-85
2021/09/24 06:33:39;;;;;;;88.32;39.70;;;16.00;99.90;;;;;;5017037;28;20533;-85
2021/09/24 06:36:04;;;;;;;90.45;38.83;;;16.00;99.90;;;;;;5012662;28;20052;-85
2021/09/24 06:38:30;;;;;;;91.20;40.88;;;16.10;99.90;;;;;;5015976;28;20068;-84
2021/09/24 06:40:55;;;;;;;91.15;39.83;;;16.10;99.90;;;;;;5014127;28;20022;-83
2021/09/24 06:43:21;;;;;;;91.25;39.17;;;16.10;99.90;;;;;;5014186;28;20038;-82
2021/09/24 06:45:47;;;;;;;88.43;37.72;;;16.10;99.90;;;;;;5012831;28;20077;-83
2021/09/24 06:48:12;;;;;;;106.43;41.78;;;16.10;99.90;;;;;;5014229;28;20486;-83
2021/09/24 06:50:39;;;;;;;97.80;42.35;;;16.20;99.90;;;;;;5014229;28;20025;-84
2021/09/24 06:53:05;;;;;;;104.88;42.45;;;16.20;99.90;;;;;;5016462;28;20076;-85
2021/09/24 06:55:31;;;;;;;109.35;42.75;;;16.20;99.90;;;;;;5015737;28;20080;-84
2021/09/24 06:57:57;;;;;;;116.70;42.97;;;16.20;99.90;;;;;;5031729;28;20390;-84
2021/09/24 07:00:24;;;;;;;110.25;41.63;;;16.20;99.90;;;;;;5013082;28;20021;-82
2021/09/24 07:02:49;;;;;;;118.15;44.00;;;16.30;99.90;;;;;;5013684;28;20545;-84
2021/09/24 07:05:15;;;;;;;116.30;43.20;;;16.30;99.90;;;;;;5014361;28;20068;-83
2021/09/24 07:07:44;;;;;;;104.25;41.45;;;16.30;99.90;;;;;;5015335;28;20025;-83
2021/09/24 07:10:11;;;;;;;106.88;41.50;;;16.30;99.90;;;;;;5014636;28;20017;-83
2021/09/24 07:12:37;;;;;;;116.68;43.10;;;16.40;99.90;;;;;;5028464;28;20026;-83
2021/09/24 07:15:04;;;;;;;106.75;42.10;;;16.40;99.90;;;;;;5011120;28;20109;-83
2021/09/24 07:17:30;;;;;;;112.93;42.08;;;16.40;99.90;;;;;;5008678;28;20064;-83
2021/09/24 07:19:56;;;;;;;114.53;43.38;;;16.50;99.90;;;;;;5012899;28;20452;-83
2021/09/24 07:22:22;;;;;;;110.47;41.17;;;16.50;99.90;;;;;;5012274;28;20022;-83
2021/09/24 07:24:49;;;;;;;113.38;43.38;;;16.50;99.90;;;;;;5011869;28;20065;-84
2021/09/24 07:27:14;;;;;;;120.00;44.17;;;16.50;99.90;;;;;;5012633;28;20026;-83
2021/09/24 07:29:40;;;;;;;129.45;45.38;;;16.60;99.90;;;;;;5009578;28;20474;-83
2021/09/24 07:32:06;;;;;;;115.68;41.92;;;16.60;99.90;;;;;;5010242;28;20088;-83
2021/09/24 07:34:31;;;;;;;115.82;43.00;;;16.60;99.90;;;;;;5011661;28;20477;-83
2021/09/24 07:36:57;;;;;;;114.35;42.08;;;16.60;99.90;;;;;;5011970;28;20021;-84
2021/09/24 07:39:22;;;;;;;104.80;38.97;;;16.70;99.90;;;;;;5008383;28;20394;-84
2021/09/24 07:41:48;;;;;;;114.85;43.80;;;16.70;99.90;;;;;;5010052;28;20448;-83
2021/09/24 07:44:14;;;;;;;109.80;43.42;;;16.80;99.90;;;;;;5003401;28;20470;-84
2021/09/24 07:46:39;;;;;;;107.53;41.10;;;16.80;99.90;;;;;;5015202;28;20021;-84
2021/09/24 07:49:05;;;;;;;111.18;43.78;;;16.90;99.90;;;;;;5013887;28;20026;-84
2021/09/24 07:51:32;;;;;;;110.25;43.38;;;16.90;99.90;;;;;;5011781;28;20039;-84
2021/09/24 07:53:57;;;;;;;105.00;42.60;;;17.10;99.90;;;;;;5011590;28;20033;-84
2021/09/24 07:56:24;;;;;;;103.70;42.90;;;17.10;99.90;;;;;;5013368;28;20021;-85
2021/09/24 07:58:50;;;;;;;110.13;42.65;;;17.20;99.90;;;;;;5011225;28;20065;-85
2021/09/24 08:01:16;;;;;;;109.82;42.03;;;17.30;99.90;;;;;;5012915;28;20048;-86
2021/09/24 08:03:42;;;;;;;89.80;39.47;;;17.30;99.90;;;;;;5011949;28;20124;-85
2021/09/24 08:06:08;;;;;;;95.85;42.30;;;17.40;99.90;;;;;;5011071;28;20140;-86
2021/09/24 08:08:33;;;;;;;87.15;39.15;;;17.50;99.90;;;;;;5011813;28;20033;-86
2021/09/24 08:10:59;;;;;;;81.45;40.33;;;17.70;99.90;;;;;;5012104;28;20030;-86
2021/09/24 08:13:25;;;;;;;82.28;38.35;;;17.80;99.90;;;;;;5011519;28;20478;-86
2021/09/24 08:15:52;;;;;;;77.88;39.60;;;18.00;99.90;;;;;;5011012;28;20026;-86
2021/09/24 08:18:18;;;;;;;77.43;37.70;;;18.10;99.90;;;;;;5010205;28;20034;-84
2021/09/24 08:20:45;;;;;;;74.22;37.40;;;18.10;99.90;;;;;;5011467;28;20087;-85
2021/09/24 08:23:11;;;;;;;71.70;37.30;;;18.20;99.90;;;;;;5011094;28;20457;-83
2021/09/24 08:25:37;;;;;;;69.57;36.83;;;18.30;99.90;;;;;;5012455;28;20033;-86
2021/09/24 08:28:03;;;;;;;69.80;37.63;;;18.30;99.90;;;;;;5010972;28;20474;-84
2021/09/24 08:30:29;;;;;;;64.20;35.80;;;18.30;99.90;;;;;;5012235;28;20029;-83
2021/09/24 08:32:55;;;;;;;65.68;34.42;;;18.40;99.90;;;;;;5010564;28;20057;-84
2021/09/24 08:35:23;;;;;;;65.07;35.83;;;18.50;99.90;;;;;;5011703;28;20053;-84
2021/09/24 08:37:49;;;;;;;64.60;34.72;;;18.50;99.90;;;;;;4992100;28;20041;-83
2021/09/24 08:40:17;;;;;;;57.88;32.05;;;18.50;99.90;;;;;;5011724;28;20105;-86
2021/09/24 08:42:44;;;;;;;58.60;34.53;;;18.50;99.90;;;;;;5012250;28;20058;-85
2021/09/24 08:45:20;;;;;;;57.45;33.70;;;18.50;99.90;;;;;;5026764;28;20036;-86
2021/09/24 08:47:46;;;;;;;55.15;31.48;;;18.50;99.90;;;;;;5009640;28;20025;-85
2021/09/24 08:50:12;;;;;;;53.15;31.63;;;18.60;99.90;;;;;;5011252;28;20041;-85
2021/09/24 08:52:39;;;;;;;51.55;31.83;;;18.70;99.90;;;;;;5007270;28;20033;-86
2021/09/24 08:55:09;;;;;;;52.13;30.83;;;18.70;99.90;;;;;;5012389;28;20059;-86
2021/09/24 08:57:36;;;;;;;51.88;30.67;;;18.80;99.90;;;;;;5006966;28;20557;-86
2021/09/24 09:00:06;;;;;;;50.13;30.23;;;18.80;99.90;;;;;;5010826;28;20038;-86
2021/09/24 09:02:53;;;;;;;46.00;29.25;;;18.90;99.90;;;;;;5016953;28;20104;-86
2021/09/24 09:05:19;;;;;;;43.30;27.50;;;18.90;99.90;;;;;;5012677;28;20038;-86
2021/09/24 09:07:45;;;;;;;41.53;26.92;;;18.90;99.90;;;;;;5012173;28;20080;-85
2021/09/24 09:10:11;;;;;;;44.70;26.92;;;18.90;99.90;;;;;;5015051;28;20026;-85
2021/09/24 09:12:37;;;;;;;37.38;26.13;;;18.90;99.90;;;;;;5015716;28;20050;-85
2021/09/24 09:15:09;;;;;;;44.17;28.15;;;19.00;99.90;;;;;;5015601;28;20045;-85
2021/09/24 09:17:38;;;;;;;38.08;24.90;;;19.00;99.90;;;;;;5009623;28;20560;-85
2021/09/24 09:20:18;;;;;;;38.53;26.10;;;19.10;99.90;;;;;;5014208;28;20030;-85
2021/09/24 09:22:50;;;;;;;37.03;24.60;;;19.10;99.90;;;;;;5011225;28;20038;-85
2021/09/24 09:25:27;;;;;;;35.40;24.33;;;19.20;99.90;;;;;;5014279;28;20093;-86
2021/09/24 09:27:56;;;;;;;32.15;22.20;;;19.30;99.90;;;;;;5014306;28;20034;-85
2021/09/24 09:30:23;;;;;;;35.83;22.95;;;19.50;99.80;;;;;;5014587;28;20539;-86
2021/09/24 09:33:15;;;;;;;28.23;21.58;;;19.70;99.20;;;;;;5006225;28;20052;-86
2021/09/24 09:35:53;;;;;;;32.55;22.50;;;19.70;98.80;;;;;;5015387;28;20363;-84
2021/09/24 09:38:28;;;;;;;34.03;21.25;;;19.80;98.50;;;;;;5016383;28;20436;-85
2021/09/24 09:41:14;;;;;;;26.88;18.73;;;19.90;98.30;;;;;;5015047;28;20029;-85
2021/09/24 09:43:50;;;;;;;28.00;20.20;;;20.00;97.90;;;;;;5026639;28;20050;-84
2021/09/24 09:46:20;;;;;;;24.92;18.40;;;20.00;97.40;;;;;;5014728;28;20064;-86
2021/09/24 09:49:09;;;;;;;25.63;18.45;;;20.00;97.30;;;;;;5011879;28;20032;-85
2021/09/24 09:51:38;;;;;;;24.63;17.60;;;20.10;97.20;;;;;;5016272;28;20048;-84
2021/09/24 09:54:05;;;;;;;25.45;18.35;;;20.20;97.20;;;;;;5014361;28;20557;-84
2021/09/24 09:56:42;;;;;;;25.83;17.38;;;20.30;96.80;;;;;;5015946;28;20544;-84
2021/09/24 09:59:27;;;;;;;24.30;16.88;;;20.30;96.70;;;;;;5014077;28;20033;-85
2021/09/24 10:02:12;;;;;;;19.77;16.05;;;20.50;96.50;;;;;;5013808;28;20061;-85
2021/09/24 10:04:53;;;;;;;20.38;16.35;;;20.60;96.20;;;;;;5030463;28;20410;-85
2021/09/24 10:07:29;;;;;;;21.88;18.85;;;20.60;95.70;;;;;;5016014;28;20021;-85
2021/09/24 10:10:15;;;;;;;23.70;18.13;;;20.60;95.50;;;;;;5015337;28;20057;-84
2021/09/24 10:12:43;;;;;;;23.48;18.55;;;20.60;95.60;;;;;;5014969;28;20061;-85
2021/09/24 10:15:11;;;;;;;28.15;18.50;;;20.60;95.50;;;;;;5012896;28;20049;-84
2021/09/24 10:17:38;;;;;;;25.02;19.83;;;20.60;95.40;;;;;;5015024;28;20076;-84
2021/09/24 10:20:05;;;;;;;23.88;18.13;;;20.70;95.40;;;;;;5012879;28;20022;-84
2021/09/24 10:22:31;;;;;;;25.38;18.45;;;20.70;95.20;;;;;;5015384;28;20061;-84
2021/09/24 10:24:57;;;;;;;23.38;18.15;;;20.70;95.10;;;;;;5013773;28;20084;-84
2021/09/24 10:27:27;;;;;;;24.27;18.67;;;20.70;94.50;;;;;;5004081;28;20030;-84
2021/09/24 10:29:54;;;;;;;23.75;17.90;;;20.60;94.20;;;;;;5012330;28;20096;-86
2021/09/24 10:32:22;;;;;;;24.52;18.15;;;20.50;94.60;;;;;;5027953;28;20045;-85
2021/09/24 10:35:10;;;;;;;24.65;18.05;;;20.50;94.40;;;;;;5009802;28;20148;-84
2021/09/24 10:37:38;;;;;;;23.42;18.42;;;20.50;94.50;;;;;;5016584;28;20029;-86
2021/09/24 10:40:26;;;;;;;28.10;20.60;;;20.40;94.80;;;;;;5007776;28;20065;-86
2021/09/24 10:42:58;;;;;;;26.90;21.48;;;20.60;94.80;;;;;;5021164;28;20034;-85
2021/09/24 10:45:29;;;;;;;31.02;23.30;;;20.70;94.90;;;;;;5010024;28;20030;-86
2021/09/24 10:48:04;;;;;;;29.90;24.30;;;20.70;94.70;;;;;;5026527;28;20034;-86
2021/09/24 10:50:32;;;;;;;30.70;24.40;;;20.70;94.40;;;;;;5012336;28;20018;-86
2021/09/24 10:53:10;;;;;;;30.35;23.88;;;20.80;94.60;;;;;;5018683;28;20026;-87
2021/09/24 10:55:39;;;;;;;32.85;24.75;;;20.90;94.60;;;;;;5012725;28;20029;-86
2021/09/24 10:58:04;;;;;;;30.05;22.70;;;21.00;94.60;;;;;;5002367;28;20414;-86
2021/09/24 11:00:32;;;;;;;30.92;24.50;;;21.00;94.60;;;;;;5015871;28;20030;-85
2021/09/24 11:03:14;;;;;;;26.75;22.75;;;21.10;94.50;;;;;;5014406;28;20037;-86
2021/09/24 11:05:56;;;;;;;28.17;22.88;;;21.20;94.40;;;;;;5008476;28;20026;-86
2021/09/24 11:08:44;;;;;;;27.80;21.95;;;21.30;93.50;;;;;;5010245;28;20056;-86
2021/09/24 11:11:15;;;;;;;27.83;21.88;;;21.20;93.30;;;;;;5012894;28;20037;-86
2021/09/24 11:13:47;;;;;;;27.02;20.15;;;21.20;93.30;;;;;;5029095;28;20130;-85
2021/09/24 11:16:13;;;;;;;28.02;21.05;;;21.20;93.00;;;;;;5027769;28;20039;-86
2021/09/24 11:18:52;;;;;;;26.55;20.48;;;21.30;92.80;;;;;;5029819;28;20062;-87
2021/09/24 11:21:45;;;;;;;25.10;19.77;;;21.20;92.60;;;;;;5015030;28;20053;-86
2021/09/24 11:24:29;;;;;;;25.58;19.63;;;21.30;92.30;;;;;;5013221;28;20513;-86
2021/09/24 11:26:57;;;;;;;22.52;18.10;;;21.20;91.90;;;;;;5028821;28;20034;-86
2021/09/24 11:29:23;;;;;;;20.90;16.20;;;21.10;91.90;;;;;;5014849;28;20025;-86
2021/09/24 11:32:04;;;;;;;20.17;16.33;;;21.00;91.70;;;;;;5014619;28;20036;-87
2021/09/24 11:34:33;;;;;;;18.48;15.88;;;21.00;91.90;;;;;;5013646;28;20057;-86
2021/09/24 11:37:23;;;;;;;17.27;13.00;;;20.90;91.80;;;;;;5010837;28;20045;-86
2021/09/24 11:39:58;;;;;;;16.27;12.27;;;21.00;92.00;;;;;;5013857;28;20029;-86
2021/09/24 11:42:24;;;;;;;16.02;10.55;;;21.00;92.00;;;;;;5014592;28;20026;-86
2021/09/24 11:44:53;;;;;;;13.95;10.40;;;20.90;91.80;;;;;;5012955;28;20034;-86
2021/09/24 11:47:20;;;;;;;11.75;9.98;;;20.80;91.90;;;;;;5014131;28;20022;-86
2021/09/24 11:49:53;;;;;;;12.98;10.20;;;20.80;92.20;;;;;;5013781;28;20033;-86
2021/09/24 11:52:18;;;;;;;12.55;9.07;;;20.80;92.20;;;;;;5014402;28;20037;-89
2021/09/24 11:54:44;;;;;;;10.98;8.52;;;20.90;92.10;;;;;;5012961;28;20026;-89
2021/09/24 11:57:17;;;;;;;14.52;9.30;;;21.10;92.40;;;;;;5013415;28;20076;-87
2021/09/24 11:59:43;;;;;;;14.73;10.80;;;21.40;92.30;;;;;;5015186;28;20033;-86
2021/09/24 12:02:19;;;;;;;13.60;10.95;;;21.50;91.70;;;;;;5010980;28;20030;-86
2021/09/24 12:05:14;;;;;;;13.18;11.27;;;21.50;91.70;;;;;;5015105;28;20556;-85
2021/09/24 12:07:49;;;;;;;14.65;12.23;;;21.50;91.80;;;;;;4997028;28;20038;-86
2021/09/24 12:10:15;;;;;;;13.48;11.60;;;21.50;92.00;;;;;;5013994;28;20022;-86
2021/09/24 12:12:44;;;;;;;12.73;11.35;;;21.60;92.30;;;;;;5013375;28;20033;-86
2021/09/24 12:15:10;;;;;;;13.57;12.02;;;21.80;91.70;;;;;;5012712;28;20098;-86
2021/09/24 12:17:35;;;;;;;14.50;11.93;;;21.80;91.30;;;;;;5013641;28;20116;-86
2021/09/24 12:20:01;;;;;;;18.15;12.05;;;21.90;91.50;;;;;;5012587;28;20022;-86
2021/09/24 12:22:26;;;;;;;15.80;11.02;;;22.00;91.40;;;;;;5013476;28;20037;-86
2021/09/24 12:24:52;;;;;;;12.80;10.50;;;21.90;91.10;;;;;;5013853;28;20037;-85
2021/09/24 12:27:26;;;;;;;13.35;10.18;;;21.80;90.90;;;;;;5014000;28;20037;-85
2021/09/24 12:29:52;;;;;;;10.93;9.38;;;21.90;91.10;;;;;;5020198;28;20034;-85
2021/09/24 12:32:20;;;;;;;10.45;8.75;;;21.90;91.10;;;;;;5010294;28;20028;-85